createdAt,value
2022-08-05T00:00:16.181Z,95.10
2022-08-05T00:02:51.696Z,95.10
2022-08-05T00:06:02.011Z,95.10
2022-08-05T00:08:32.403Z,95.20
2022-08-05T00:11:00.345Z,95.20
2022-08-05T00:13:38.216Z,95.20
2022-08-05T00:16:12.220Z,95.20
2022-08-05T00:18:42.194Z,95.20
2022-08-05T00:21:10.085Z,95.30
2022-08-05T00:23:46.489Z,95.30
2022-08-05T00:26:16.346Z,95.30
2022-08-05T00:28:45.898Z,95.30
2022-08-05T00:31:13.634Z,95.30
2022-08-05T00:34:54.360Z,95.30
2022-08-05T00:37:12.636Z,95.30
2022-08-05T00:39:17.344Z,95.40
2022-08-05T00:41:55.337Z,95.40
2022-08-05T00:44:30.713Z,95.40
2022-08-05T00:47:01.970Z,95.40
2022-08-05T00:49:51.094Z,95.40
2022-08-05T00:52:28.793Z,95.40
2022-08-05T00:54:56.774Z,95.50
2022-08-05T00:57:38.257Z,95.50
2022-08-05T01:00:13.318Z,95.50
2022-08-05T01:02:41.329Z,95.50
2022-08-05T01:05:12.642Z,95.50
2022-08-05T01:08:42.156Z,95.60
2022-08-05T01:10:31.948Z,95.60
2022-08-05T01:13:05.442Z,95.60
2022-08-05T01:15:51.293Z,95.60
2022-08-05T01:18:27.492Z,95.60
2022-08-05T01:20:55.181Z,95.70
2022-08-05T01:23:38.198Z,95.70
2022-08-05T01:26:26.324Z,95.70
2022-08-05T01:29:12.134Z,95.70
2022-08-05T01:31:47.683Z,95.70
2022-08-05T01:34:35.874Z,95.70
2022-08-05T01:37:09.684Z,95.70
2022-08-05T01:39:58.636Z,95.70
2022-08-05T01:42:27.525Z,95.80
2022-08-05T01:44:59.234Z,95.80
2022-08-05T01:47:30.537Z,95.80
2022-08-05T01:50:15.755Z,95.80
2022-08-05T01:52:49.890Z,95.80
2022-08-05T01:55:19.280Z,95.80
2022-08-05T01:58:10.465Z,95.90
2022-08-05T02:00:37.666Z,95.90
2022-08-05T02:03:24.447Z,95.90
2022-08-05T02:05:59.782Z,95.90
2022-08-05T02:08:30.851Z,96.00
2022-08-05T02:11:23.686Z,96.00
2022-08-05T02:13:54.160Z,96.00
2022-08-05T02:16:23.387Z,96.00
2022-08-05T02:18:59.648Z,96.00
2022-08-05T02:21:40.320Z,96.00
2022-08-05T02:24:14.574Z,96.10
2022-08-05T02:26:53.841Z,96.10
2022-08-05T02:29:26.031Z,96.10
2022-08-05T02:32:12.384Z,96.10
2022-08-05T02:34:54.675Z,96.10
2022-08-05T02:37:24.936Z,96.20
2022-08-05T02:39:53.113Z,96.20
2022-08-05T02:42:25.748Z,96.20
2022-08-05T02:44:55.731Z,96.20
2022-08-05T02:47:24.243Z,96.20
2022-08-05T02:49:52.794Z,96.20
2022-08-05T02:52:29.464Z,96.30
2022-08-05T02:54:58.763Z,96.30
2022-08-05T02:58:09.191Z,96.30
2022-08-05T03:00:17.756Z,96.30
2022-08-05T03:02:46.359Z,96.40
2022-08-05T03:05:15.092Z,96.40
2022-08-05T03:08:06.992Z,96.40
2022-08-05T03:10:31.656Z,96.40
2022-08-05T03:15:28.379Z,96.50
2022-08-05T03:17:57.583Z,96.50
2022-08-05T03:20:25.412Z,96.50
2022-08-05T03:22:57.079Z,96.50
2022-08-05T03:25:32.441Z,96.60
2022-08-05T03:28:14.538Z,96.60
2022-08-05T03:30:47.273Z,96.60
2022-08-05T03:33:14.981Z,96.60
2022-08-05T03:35:42.614Z,96.60
2022-08-05T03:38:14.588Z,96.60
2022-08-05T03:40:45.374Z,96.70
2022-08-05T03:44:09.902Z,96.70
2022-08-05T03:46:05.654Z,96.70
2022-08-05T03:48:36.777Z,96.70
2022-08-05T03:52:37.668Z,96.70
2022-08-05T03:55:53.477Z,96.80
2022-08-05T03:56:55.954Z,96.80
2022-08-05T03:59:47.170Z,96.80
2022-08-05T04:02:38.842Z,96.80
2022-08-05T04:05:10.414Z,96.80
2022-08-05T04:07:53.525Z,96.90
2022-08-05T04:10:27.738Z,96.90
2022-08-05T04:12:56.322Z,96.90
2022-08-05T04:15:32.850Z,96.90
2022-08-05T04:18:07.225Z,96.90
2022-08-05T04:20:37.460Z,96.90
2022-08-05T04:23:05.135Z,97.00
2022-08-05T04:25:56.543Z,96.90
2022-08-05T04:28:21.099Z,97.00
2022-08-05T04:31:01.092Z,97.00
2022-08-05T04:33:54.774Z,97.00
2022-08-05T04:36:45.634Z,97.10
2022-08-05T04:39:04.948Z,97.10
2022-08-05T04:41:37.634Z,97.10
2022-08-05T04:44:09.487Z,97.10
2022-08-05T04:46:38.515Z,97.10
2022-08-05T04:49:14.490Z,97.10
2022-08-05T04:51:43.660Z,97.10
2022-08-05T04:54:11.963Z,97.10
2022-08-05T04:56:40.613Z,97.10
2022-08-05T04:59:21.491Z,97.10
2022-08-05T05:02:35.171Z,97.10
2022-08-05T05:04:47.557Z,97.10
2022-08-05T05:07:18.410Z,97.20
2022-08-05T05:09:51.991Z,97.20
2022-08-05T05:12:22.248Z,97.20
2022-08-05T05:14:51.344Z,97.20
2022-08-05T05:17:23.964Z,97.20
2022-08-05T05:19:54.099Z,97.20
2022-08-05T05:22:23.888Z,97.20
2022-08-05T05:24:57.214Z,97.20
2022-08-05T05:27:41.439Z,97.20
2022-08-05T05:30:28.706Z,97.20
2022-08-05T05:33:00.540Z,97.20
2022-08-05T05:35:34.473Z,97.30
2022-08-05T05:38:09.409Z,97.30
2022-08-05T05:40:48.287Z,97.30
2022-08-05T05:43:22.432Z,97.30
2022-08-05T05:46:13.714Z,97.30
2022-08-05T05:48:45.846Z,97.30
2022-08-05T05:51:19.202Z,97.30
2022-08-05T05:53:57.902Z,97.30
2022-08-05T05:56:33.047Z,97.30
2022-08-05T05:59:05.130Z,97.30
2022-08-05T06:01:37.337Z,97.30
2022-08-05T06:04:11.373Z,97.30
2022-08-05T06:06:47.653Z,97.30
2022-08-05T06:09:24.850Z,97.50
2022-08-05T06:11:59.986Z,97.20
2022-08-05T06:14:30.812Z,97.20
2022-08-05T06:16:59.137Z,97.20
2022-08-05T06:19:35.380Z,97.20
2022-08-05T06:22:04.704Z,97.50
2022-08-05T06:24:35.272Z,97.10
2022-08-05T06:27:03.933Z,97.20
2022-08-05T06:29:46.921Z,97.20
2022-08-05T06:32:24.836Z,97.30
2022-08-05T06:34:56.820Z,97.30
2022-08-05T06:37:56.996Z,97.30
2022-08-05T06:40:18.170Z,97.30
2022-08-05T06:42:52.744Z,97.50
2022-08-05T06:45:44.944Z,97.80
2022-08-05T06:48:47.162Z,98.00
2022-08-05T06:50:57.704Z,98.30
2022-08-05T06:53:27.905Z,98.20
2022-08-05T06:55:58.083Z,98.00
2022-08-05T06:58:34.899Z,98.20
2022-08-05T07:01:04.583Z,98.10
2022-08-05T07:03:33.276Z,98.00
2022-08-05T07:06:05.649Z,98.00
2022-08-05T07:08:47.920Z,98.20
2022-08-05T07:11:25.618Z,98.40
2022-08-05T07:14:15.630Z,98.40
2022-08-05T07:18:01.765Z,98.20
2022-08-05T07:22:30.147Z,98.00
2022-08-05T07:24:59.253Z,98.00
2022-08-05T07:27:27.711Z,98.10
2022-08-05T07:30:28.230Z,97.90
2022-08-05T07:32:58.542Z,97.90
2022-08-05T07:35:55.665Z,97.90
2022-08-05T07:38:32.533Z,98.00
2022-08-05T07:42:07.098Z,97.80
2022-08-05T07:43:56.090Z,97.90
2022-08-05T07:46:26.046Z,98.00
2022-08-05T07:49:04.339Z,98.00
2022-08-05T07:51:40.842Z,98.00
2022-08-05T07:54:18.622Z,98.30
2022-08-05T07:57:01.155Z,98.30
2022-08-05T07:59:40.402Z,98.30
2022-08-05T08:02:16.694Z,98.30
2022-08-05T08:04:49.622Z,98.30
2022-08-05T08:07:22.685Z,98.30
2022-08-05T08:09:53.050Z,98.90
2022-08-05T08:12:35.521Z,98.70
2022-08-05T08:15:14.270Z,98.70
2022-08-05T08:17:49.844Z,99.20
2022-08-05T08:20:59.981Z,99.60
2022-08-05T08:24:03.403Z,99.90
2022-08-05T08:26:02.795Z,99.90
2022-08-05T08:28:37.086Z,99.90
2022-08-05T08:31:15.000Z,99.90
2022-08-05T08:33:45.540Z,99.90
2022-08-05T08:36:48.868Z,99.90
2022-08-05T08:39:02.373Z,99.90
2022-08-05T08:41:52.524Z,99.90
2022-08-05T08:45:23.475Z,99.90
2022-08-05T08:47:47.699Z,99.90
2022-08-05T08:50:22.916Z,99.90
2022-08-05T08:52:55.860Z,99.90
2022-08-05T08:55:31.937Z,99.90
2022-08-05T08:58:12.923Z,99.90
2022-08-05T09:00:41.827Z,99.90
2022-08-05T09:03:11.101Z,99.90
2022-08-05T09:06:07.656Z,99.90
2022-08-05T09:08:30.108Z,99.90
2022-08-05T09:10:58.720Z,99.90
2022-08-05T09:13:31.571Z,99.90
2022-08-05T09:16:00.701Z,99.90
2022-08-05T09:18:29.924Z,99.90
2022-08-05T09:20:58.886Z,99.90
2022-08-05T09:23:37.261Z,99.90
2022-08-05T09:26:20.903Z,99.90
2022-08-05T09:28:50.025Z,99.90
2022-08-05T09:31:43.863Z,99.90
2022-08-05T09:34:06.562Z,99.90
2022-08-05T09:36:54.449Z,99.90
2022-08-05T09:39:24.427Z,99.90
2022-08-05T09:42:13.529Z,99.90
2022-08-05T09:44:51.270Z,99.90
2022-08-05T09:47:22.379Z,99.90
2022-08-05T09:49:54.731Z,99.90
2022-08-05T09:52:35.043Z,99.90
2022-08-05T09:55:56.859Z,99.90
2022-08-05T09:57:58.638Z,99.90
2022-08-05T10:00:27.732Z,99.90
2022-08-05T10:02:58.289Z,99.90
2022-08-05T10:05:27.583Z,99.90
2022-08-05T10:08:35.879Z,99.90
2022-08-05T10:10:44.793Z,99.90
2022-08-05T10:13:14.575Z,99.90
2022-08-05T10:15:43.787Z,99.90
2022-08-05T10:18:19.692Z,99.90
2022-08-05T10:20:52.672Z,99.90
2022-08-05T10:23:55.326Z,99.90
2022-08-05T10:26:14.417Z,99.90
2022-08-05T10:28:48.593Z,99.90
2022-08-05T10:32:49.269Z,99.90
2022-08-05T10:34:07.105Z,99.90
2022-08-05T10:36:37.127Z,99.90
2022-08-05T10:39:10.297Z,99.80
2022-08-05T10:42:01.002Z,99.80
2022-08-05T10:44:30.912Z,99.60
2022-08-05T10:46:58.520Z,99.40
2022-08-05T10:49:33.042Z,99.40
2022-08-05T10:52:03.299Z,99.50
2022-08-05T10:54:56.937Z,99.70
2022-08-05T10:57:30.879Z,99.90
2022-08-05T11:00:18.224Z,99.70
2022-08-05T11:03:23.747Z,99.10
2022-08-05T11:06:15.974Z,99.80
2022-08-05T11:09:04.265Z,99.80
2022-08-05T11:11:44.720Z,99.90
2022-08-05T11:14:42.794Z,99.90
2022-08-05T11:17:57.083Z,99.90
2022-08-05T11:20:37.480Z,99.90
2022-08-05T11:23:25.789Z,99.20
2022-08-05T11:26:09.083Z,99.50
2022-08-05T11:28:38.657Z,98.90
2022-08-05T11:31:08.182Z,98.60
2022-08-05T11:33:46.289Z,98.40
2022-08-05T11:36:34.244Z,98.30
2022-08-05T11:39:07.805Z,97.30
2022-08-05T11:42:01.233Z,96.50
2022-08-05T11:44:53.274Z,96.20
2022-08-05T11:47:48.761Z,96.40
2022-08-05T11:50:09.131Z,96.40
2022-08-05T11:52:36.821Z,96.20
2022-08-05T11:55:07.076Z,95.50
2022-08-05T11:58:08.579Z,95.40
2022-08-05T12:00:30.345Z,95.40
2022-08-05T12:02:58.530Z,95.40
2022-08-05T12:05:36.223Z,95.20
2022-08-05T12:08:18.073Z,94.40
2022-08-05T12:10:47.333Z,94.50
2022-08-05T12:13:27.624Z,94.70
2022-08-05T12:16:14.235Z,92.70
2022-08-05T12:18:52.803Z,94.00
2022-08-05T12:21:23.591Z,94.30
2022-08-05T12:23:54.681Z,94.30
2022-08-05T12:26:23.205Z,93.90
2022-08-05T12:28:51.621Z,93.90
2022-08-05T12:31:32.548Z,93.90
2022-08-05T12:34:06.880Z,94.20
2022-08-05T12:36:35.542Z,95.00
2022-08-05T12:39:05.580Z,95.30
2022-08-05T12:41:35.833Z,95.70
2022-08-05T12:44:14.448Z,95.70
2022-08-05T12:46:53.575Z,96.00
2022-08-05T12:49:25.464Z,95.90
2022-08-05T12:52:12.864Z,95.80
2022-08-05T12:54:47.562Z,96.30
2022-08-05T12:57:17.739Z,96.60
2022-08-05T13:01:56.699Z,97.10
2022-08-05T13:02:36.854Z,96.30
2022-08-05T13:05:07.054Z,96.60
2022-08-05T13:10:23.995Z,96.20
2022-08-05T13:12:58.061Z,96.20
2022-08-05T13:15:41.387Z,95.70
2022-08-05T13:18:19.802Z,95.30
2022-08-05T13:20:49.118Z,95.10
2022-08-05T13:23:18.182Z,95.10
2022-08-05T13:25:59.321Z,95.70
2022-08-05T13:28:29.630Z,95.70
2022-08-05T13:31:00.091Z,95.50
2022-08-05T13:34:22.196Z,95.00
2022-08-05T13:36:26.357Z,95.30
2022-08-05T13:38:54.439Z,95.40
2022-08-05T13:41:22.526Z,95.30
2022-08-05T13:43:54.837Z,95.20
2022-08-05T13:46:37.887Z,95.20
2022-08-05T13:49:12.494Z,95.20
2022-08-05T13:51:46.286Z,94.60
2022-08-05T13:54:15.493Z,94.20
2022-08-05T13:56:50.797Z,93.90
2022-08-05T13:59:21.345Z,93.40
2022-08-05T14:01:57.443Z,92.80
2022-08-05T14:04:50.036Z,92.50
2022-08-05T14:07:25.838Z,92.10
2022-08-05T14:10:10.889Z,91.60
2022-08-05T14:12:39.295Z,91.50
2022-08-05T14:16:07.547Z,91.40
2022-08-05T14:17:59.720Z,91.50
2022-08-05T14:20:27.800Z,91.50
2022-08-05T14:22:55.938Z,90.80
2022-08-05T14:25:27.962Z,90.50
2022-08-05T14:27:58.477Z,91.10
2022-08-05T14:30:28.013Z,90.80
2022-08-05T14:32:56.767Z,90.60
2022-08-05T14:35:36.957Z,90.00
2022-08-05T14:38:32.788Z,88.40
2022-08-05T14:41:00.864Z,89.30
2022-08-05T14:43:53.896Z,89.80
2022-08-05T14:46:16.439Z,90.30
2022-08-05T14:48:44.734Z,89.00
2022-08-05T14:51:18.010Z,88.90
2022-08-05T14:54:25.846Z,87.90
2022-08-05T14:56:37.996Z,88.90
2022-08-05T14:59:12.766Z,88.00
2022-08-05T15:01:47.859Z,86.00
2022-08-05T15:04:17.500Z,84.60
2022-08-05T15:06:49.366Z,85.70
2022-08-05T15:09:51.355Z,85.60
2022-08-05T15:12:11.480Z,85.50
2022-08-05T15:14:42.270Z,85.40
2022-08-05T15:17:45.602Z,84.30
2022-08-05T15:20:06.265Z,83.40
2022-08-05T15:22:37.756Z,83.60
2022-08-05T15:25:13.592Z,82.60
2022-08-05T15:27:42.857Z,81.50
2022-08-05T15:30:20.288Z,80.90
2022-08-05T15:32:50.189Z,80.20
2022-08-05T15:35:18.641Z,81.00
2022-08-05T15:38:32.951Z,80.30
2022-08-05T15:40:59.157Z,80.20
2022-08-05T15:43:25.376Z,80.10
2022-08-05T15:46:00.704Z,80.30
2022-08-05T15:48:29.455Z,81.20
2022-08-05T15:50:57.556Z,82.30
2022-08-05T15:53:26.341Z,81.60
2022-08-05T15:56:04.084Z,81.70
2022-08-05T15:58:37.064Z,82.20
2022-08-05T16:01:16.291Z,82.60
2022-08-05T16:03:45.575Z,81.30
2022-08-05T16:06:19.563Z,80.60
2022-08-05T16:08:51.118Z,80.70
2022-08-05T16:11:42.900Z,80.80
2022-08-05T16:14:09.342Z,80.20
2022-08-05T16:16:37.374Z,79.20
2022-08-05T16:19:05.127Z,77.90
2022-08-05T16:22:00.661Z,78.50
2022-08-05T16:24:39.600Z,77.90
2022-08-05T16:27:08.747Z,78.70
2022-08-05T16:29:37.275Z,78.30
2022-08-05T16:32:09.515Z,77.40
2022-08-05T16:34:41.697Z,78.00
2022-08-05T16:38:03.609Z,78.70
2022-08-05T16:40:06.521Z,80.10
2022-08-05T16:42:36.215Z,79.40
2022-08-05T16:46:02.842Z,79.00
2022-08-05T16:47:55.556Z,79.30
2022-08-05T16:50:26.186Z,79.00
2022-08-05T16:52:53.845Z,78.80
2022-08-05T16:55:24.475Z,78.40
2022-08-05T16:58:00.351Z,77.00
2022-08-05T17:00:34.532Z,77.50
2022-08-05T17:03:09.156Z,78.30
2022-08-05T17:05:46.975Z,78.90
2022-08-05T17:08:33.463Z,78.80
2022-08-05T17:11:08.858Z,78.40
2022-08-05T17:13:42.198Z,78.70
2022-08-05T17:16:29.863Z,78.10
2022-08-05T17:18:58.011Z,78.60
2022-08-05T17:21:25.629Z,78.20
2022-08-05T17:24:18.659Z,78.40
2022-08-05T17:26:52.253Z,78.30
2022-08-05T17:29:22.227Z,77.90
2022-08-05T17:31:57.335Z,77.70
2022-08-05T17:34:29.495Z,78.20
2022-08-05T17:36:58.258Z,79.60
2022-08-05T17:39:34.131Z,80.20
2022-08-05T17:42:17.737Z,79.70
2022-08-05T17:44:50.215Z,80.00
2022-08-05T17:47:22.433Z,80.30
2022-08-05T17:50:00.289Z,81.30
2022-08-05T17:52:32.971Z,80.20
2022-08-05T17:55:03.001Z,80.20
2022-08-05T17:57:31.373Z,80.60
2022-08-05T18:00:03.491Z,80.20
2022-08-05T18:02:34.250Z,80.70
2022-08-05T18:05:07.007Z,80.10
2022-08-05T18:07:41.339Z,80.10
2022-08-05T18:10:14.005Z,80.30
2022-08-05T18:12:48.589Z,81.40
2022-08-05T18:15:16.675Z,82.10
2022-08-05T18:18:01.699Z,82.00
2022-08-05T18:20:31.963Z,82.90
2022-08-05T18:23:09.191Z,83.30
2022-08-05T18:25:38.925Z,82.40
2022-08-05T18:28:07.365Z,82.30
2022-08-05T18:30:38.937Z,82.00
2022-08-05T18:33:08.456Z,82.60
2022-08-05T18:35:59.874Z,82.80
2022-08-05T18:38:25.778Z,82.80
2022-08-05T18:41:55.015Z,83.10
2022-08-05T18:43:42.997Z,82.70
2022-08-05T18:46:20.165Z,82.30
2022-08-05T18:48:53.470Z,82.20
2022-08-05T18:52:04.715Z,82.40
2022-08-05T18:54:31.709Z,82.50
2022-08-05T18:57:01.361Z,82.80
2022-08-05T18:59:43.000Z,83.30
2022-08-05T19:02:26.667Z,84.00
2022-08-05T19:05:01.677Z,83.80
2022-08-05T19:07:45.984Z,84.30
2022-08-05T19:10:14.566Z,84.80
2022-08-05T19:12:43.082Z,85.10
2022-08-05T19:15:57.082Z,85.50
2022-08-05T19:18:10.065Z,85.70
2022-08-05T19:20:41.592Z,85.60
2022-08-05T19:23:22.742Z,85.50
2022-08-05T19:26:02.215Z,85.80
2022-08-05T19:28:34.577Z,85.30
2022-08-05T19:31:05.791Z,85.50
2022-08-05T19:33:36.854Z,85.80
2022-08-05T19:36:06.483Z,85.60
2022-08-05T19:38:35.944Z,85.70
2022-08-05T19:41:09.050Z,87.10
2022-08-05T19:44:07.072Z,86.90
2022-08-05T19:46:29.006Z,87.10
2022-08-05T19:49:03.274Z,88.10
2022-08-05T19:52:05.668Z,88.80
2022-08-05T19:54:26.620Z,89.10
2022-08-05T19:56:59.496Z,89.00
2022-08-05T19:59:56.267Z,88.90
2022-08-05T20:02:17.694Z,88.90
2022-08-05T20:04:48.208Z,88.50
2022-08-05T20:07:45.888Z,88.20
2022-08-05T20:10:13.210Z,87.80
2022-08-05T20:12:48.188Z,87.20
2022-08-05T20:15:48.027Z,87.20
2022-08-05T20:18:10.354Z,87.00
2022-08-05T20:20:56.016Z,86.80
2022-08-05T20:23:39.750Z,86.80
2022-08-05T20:26:15.867Z,86.70
2022-08-05T20:28:45.755Z,86.50
2022-08-05T20:31:13.683Z,86.50
2022-08-05T20:33:44.436Z,86.40
2022-08-05T20:36:14.379Z,86.30
2022-08-05T20:38:53.695Z,86.20
2022-08-05T20:41:24.133Z,86.10
2022-08-05T20:43:59.581Z,86.00
2022-08-05T20:46:30.388Z,86.10
2022-08-05T20:48:59.744Z,86.20
2022-08-05T20:51:30.196Z,86.00
2022-08-05T20:54:01.367Z,85.90
2022-08-05T20:56:34.251Z,86.00
2022-08-05T20:59:19.252Z,86.00
2022-08-05T21:01:56.335Z,86.40
2022-08-05T21:04:26.915Z,86.20
2022-08-05T21:06:55.799Z,86.20
2022-08-05T21:09:23.681Z,86.20
2022-08-05T21:12:10.869Z,86.20
2022-08-05T21:14:39.869Z,86.10
2022-08-05T21:17:07.519Z,86.00
2022-08-05T21:19:46.648Z,85.90
2022-08-05T21:22:23.238Z,85.80
2022-08-05T21:24:52.641Z,85.70
2022-08-05T21:27:25.464Z,85.60
2022-08-05T21:30:02.023Z,85.50
2022-08-05T21:32:30.156Z,85.50
2022-08-05T21:35:08.576Z,85.40
2022-08-05T21:37:47.407Z,85.40
2022-08-05T21:40:22.241Z,85.30
2022-08-05T21:42:51.635Z,85.20
2022-08-05T21:45:25.241Z,85.10
2022-08-05T21:48:08.905Z,85.10
2022-08-05T21:50:37.423Z,85.10
2022-08-05T21:53:16.220Z,85.10
2022-08-05T21:56:04.910Z,85.10
2022-08-05T21:58:32.551Z,85.10
2022-08-05T22:01:01.405Z,85.20
2022-08-05T22:03:51.923Z,85.20
2022-08-05T22:06:22.833Z,85.20
2022-08-05T22:09:13.075Z,85.20
2022-08-05T22:11:41.174Z,85.20
2022-08-05T22:14:33.979Z,85.30
2022-08-05T22:17:01.491Z,85.40
2022-08-05T22:20:01.836Z,85.30
2022-08-05T22:22:26.683Z,85.50
2022-08-05T22:25:18.167Z,85.40
2022-08-05T22:28:08.390Z,85.40
2022-08-05T22:30:55.542Z,85.40
2022-08-05T22:33:57.105Z,85.50
2022-08-05T22:36:16.383Z,85.50
2022-08-05T22:38:48.342Z,85.50
2022-08-05T22:42:05.401Z,85.60
2022-08-05T22:44:05.604Z,85.70
2022-08-05T22:46:33.268Z,85.70
2022-08-05T22:49:00.896Z,86.20
2022-08-05T22:52:05.558Z,85.70
2022-08-05T22:54:16.212Z,85.80
2022-08-05T22:56:43.832Z,85.80
2022-08-05T22:59:45.029Z,85.80
2022-08-05T23:02:07.687Z,85.80
2022-08-05T23:04:36.338Z,85.90
2022-08-05T23:07:05.742Z,86.10
2022-08-05T23:09:57.437Z,86.00
2022-08-05T23:12:24.346Z,86.10
2022-08-05T23:14:52.271Z,86.10
2022-08-05T23:17:35.037Z,86.20
2022-08-05T23:20:17.675Z,86.20
2022-08-05T23:22:48.915Z,86.30
2022-08-05T23:25:51.503Z,86.30
2022-08-05T23:28:11.173Z,86.30
2022-08-05T23:30:43.386Z,86.40
2022-08-05T23:33:16.435Z,86.50
2022-08-05T23:35:55.060Z,86.60
2022-08-05T23:38:25.762Z,86.60
2022-08-05T23:40:53.414Z,86.70
2022-08-05T23:43:24.827Z,86.70
2022-08-05T23:46:04.504Z,86.80
2022-08-05T23:48:32.136Z,86.90
2022-08-05T23:51:00.136Z,87.00
2022-08-05T23:53:46.681Z,87.10
2022-08-05T23:56:20.258Z,87.20
2022-08-05T23:58:55.052Z,87.20
